sensor_id;sensor_type;location;lat;lon;timestamp;temperature;humidity
65239;SHT30;51827;51.186;6.926;2023-04-03T00:00:00;18.75;50.38
65239;SHT30;51827;51.186;6.926;2023-04-03T00:01:03;18.73;50.41
65239;SHT30;51827;51.186;6.926;2023-04-03T00:02:03;18.79;50.38
65239;SHT30;51827;51.186;6.926;2023-04-03T00:03:03;18.73;50.41
65239;SHT30;51827;51.186;6.926;2023-04-03T00:04:04;18.76;50.39
65239;SHT30;51827;51.186;6.926;2023-04-03T00:05:05;18.75;50.41
65239;SHT30;51827;51.186;6.926;2023-04-03T00:06:05;18.73;50.39
65239;SHT30;51827;51.186;6.926;2023-04-03T00:07:06;18.73;50.39
65239;SHT30;51827;51.186;6.926;2023-04-03T00:08:06;18.73;50.39
65239;SHT30;51827;51.186;6.926;2023-04-03T00:09:06;18.72;50.36
65239;SHT30;51827;51.186;6.926;2023-04-03T00:10:07;18.75;50.47
65239;SHT30;51827;51.186;6.926;2023-04-03T00:11:08;18.71;50.42
65239;SHT30;51827;51.186;6.926;2023-04-03T00:12:08;18.72;50.42
65239;SHT30;51827;51.186;6.926;2023-04-03T00:13:08;18.72;50.39
65239;SHT30;51827;51.186;6.926;2023-04-03T00:14:09;18.73;50.42
65239;SHT30;51827;51.186;6.926;2023-04-03T00:15:09;18.71;50.39
65239;SHT30;51827;51.186;6.926;2023-04-03T00:16:10;18.73;50.43
65239;SHT30;51827;51.186;6.926;2023-04-03T00:17:11;18.73;50.41
65239;SHT30;51827;51.186;6.926;2023-04-03T00:18:11;18.71;50.45
65239;SHT30;51827;51.186;6.926;2023-04-03T00:19:11;18.71;50.47
65239;SHT30;51827;51.186;6.926;2023-04-03T00:20:12;18.72;50.42
65239;SHT30;51827;51.186;6.926;2023-04-03T00:21:13;18.73;50.43
65239;SHT30;51827;51.186;6.926;2023-04-03T00:22:13;18.71;50.39
65239;SHT30;51827;51.186;6.926;2023-04-03T00:23:13;18.72;50.41
65239;SHT30;51827;51.186;6.926;2023-04-03T00:24:13;18.72;50.43
65239;SHT30;51827;51.186;6.926;2023-04-03T00:25:14;18.73;50.43
65239;SHT30;51827;51.186;6.926;2023-04-03T00:26:14;18.72;50.42
65239;SHT30;51827;51.186;6.926;2023-04-03T00:27:14;18.69;50.40
65239;SHT30;51827;51.186;6.926;2023-04-03T00:28:15;18.71;50.42
65239;SHT30;51827;51.186;6.926;2023-04-03T00:29:15;18.72;50.41
65239;SHT30;51827;51.186;6.926;2023-04-03T00:30:17;18.69;50.39
65239;SHT30;51827;51.186;6.926;2023-04-03T00:31:17;18.72;50.42
65239;SHT30;51827;51.186;6.926;2023-04-03T00:32:18;18.71;50.37
65239;SHT30;51827;51.186;6.926;2023-04-03T00:33:19;18.73;50.37
65239;SHT30;51827;51.186;6.926;2023-04-03T00:34:19;18.71;50.41
65239;SHT30;51827;51.186;6.926;2023-04-03T00:35:21;18.71;50.35
65239;SHT30;51827;51.186;6.926;2023-04-03T00:36:21;18.72;50.42
65239;SHT30;51827;51.186;6.926;2023-04-03T00:37:21;18.69;50.40
65239;SHT30;51827;51.186;6.926;2023-04-03T00:38:21;18.69;50.44
65239;SHT30;51827;51.186;6.926;2023-04-03T00:39:22;18.71;50.41
65239;SHT30;51827;51.186;6.926;2023-04-03T00:40:24;18.71;50.40
65239;SHT30;51827;51.186;6.926;2023-04-03T00:41:25;18.71;50.41
65239;SHT30;51827;51.186;6.926;2023-04-03T00:42:25;18.68;50.38
65239;SHT30;51827;51.186;6.926;2023-04-03T00:43:25;18.69;50.37
65239;SHT30;51827;51.186;6.926;2023-04-03T00:45:37;18.71;50.32
65239;SHT30;51827;51.186;6.926;2023-04-03T00:46:38;18.69;50.38
65239;SHT30;51827;51.186;6.926;2023-04-03T00:47:40;18.69;50.35
65239;SHT30;51827;51.186;6.926;2023-04-03T00:48:43;18.69;50.34
65239;SHT30;51827;51.186;6.926;2023-04-03T00:49:44;18.69;50.37
65239;SHT30;51827;51.186;6.926;2023-04-03T00:50:44;18.69;50.34
65239;SHT30;51827;51.186;6.926;2023-04-03T00:51:45;18.69;50.34
65239;SHT30;51827;51.186;6.926;2023-04-03T00:52:46;18.69;50.35
65239;SHT30;51827;51.186;6.926;2023-04-03T00:53:50;18.68;50.37
65239;SHT30;51827;51.186;6.926;2023-04-03T00:54:54;18.66;50.36
65239;SHT30;51827;51.186;6.926;2023-04-03T00:55:56;18.69;50.37
65239;SHT30;51827;51.186;6.926;2023-04-03T00:56:57;18.65;50.32
65239;SHT30;51827;51.186;6.926;2023-04-03T00:57:58;18.68;50.38
65239;SHT30;51827;51.186;6.926;2023-04-03T00:59:09;18.69;50.38
65239;SHT30;51827;51.186;6.926;2023-04-03T01:00:14;18.68;50.37
65239;SHT30;51827;51.186;6.926;2023-04-03T01:01:19;18.69;50.33
65239;SHT30;51827;51.186;6.926;2023-04-03T01:02:20;18.68;50.41
65239;SHT30;51827;51.186;6.926;2023-04-03T01:03:21;18.65;50.34
65239;SHT30;51827;51.186;6.926;2023-04-03T01:05:34;18.68;50.34
65239;SHT30;51827;51.186;6.926;2023-04-03T01:06:37;18.65;50.34
65239;SHT30;51827;51.186;6.926;2023-04-03T01:07:38;18.68;50.32
65239;SHT30;51827;51.186;6.926;2023-04-03T01:08:38;18.66;50.39
65239;SHT30;51827;51.186;6.926;2023-04-03T01:09:39;18.66;50.28
65239;SHT30;51827;51.186;6.926;2023-04-03T01:10:40;18.68;50.37
65239;SHT30;51827;51.186;6.926;2023-04-03T01:11:40;18.66;50.31
65239;SHT30;51827;51.186;6.926;2023-04-03T01:12:42;18.66;50.36
65239;SHT30;51827;51.186;6.926;2023-04-03T01:13:43;18.66;50.33
65239;SHT30;51827;51.186;6.926;2023-04-03T01:14:44;18.65;50.31
65239;SHT30;51827;51.186;6.926;2023-04-03T01:15:45;18.65;50.33
65239;SHT30;51827;51.186;6.926;2023-04-03T01:16:55;18.68;50.30
65239;SHT30;51827;51.186;6.926;2023-04-03T01:17:57;18.65;50.26
65239;SHT30;51827;51.186;6.926;2023-04-03T01:18:59;18.64;50.28
65239;SHT30;51827;51.186;6.926;2023-04-03T01:22:32;18.65;50.30
65239;SHT30;51827;51.186;6.926;2023-04-03T01:24:41;18.66;50.30
65239;SHT30;51827;51.186;6.926;2023-04-03T01:25:48;18.66;50.27
65239;SHT30;51827;51.186;6.926;2023-04-03T01:26:48;18.65;50.26
65239;SHT30;51827;51.186;6.926;2023-04-03T01:27:49;18.65;50.28
65239;SHT30;51827;51.186;6.926;2023-04-03T01:28:49;18.64;50.33
65239;SHT30;51827;51.186;6.926;2023-04-03T01:29:50;18.65;50.32
65239;SHT30;51827;51.186;6.926;2023-04-03T01:32:03;18.64;50.25
65239;SHT30;51827;51.186;6.926;2023-04-03T01:33:03;18.65;50.26
65239;SHT30;51827;51.186;6.926;2023-04-03T01:34:03;18.65;50.21
65239;SHT30;51827;51.186;6.926;2023-04-03T01:35:04;18.64;50.30
65239;SHT30;51827;51.186;6.926;2023-04-03T01:36:07;18.65;50.32
65239;SHT30;51827;51.186;6.926;2023-04-03T01:37:08;18.64;50.26
65239;SHT30;51827;51.186;6.926;2023-04-03T01:38:08;18.64;50.22
65239;SHT30;51827;51.186;6.926;2023-04-03T01:39:08;18.65;50.25
65239;SHT30;51827;51.186;6.926;2023-04-03T01:40:09;18.65;50.23
65239;SHT30;51827;51.186;6.926;2023-04-03T01:41:09;18.61;50.21
65239;SHT30;51827;51.186;6.926;2023-04-03T01:42:09;18.62;50.25
65239;SHT30;51827;51.186;6.926;2023-04-03T01:43:10;18.62;50.24
65239;SHT30;51827;51.186;6.926;2023-04-03T01:44:10;18.64;50.30
65239;SHT30;51827;51.186;6.926;2023-04-03T01:45:10;18.65;50.22
65239;SHT30;51827;51.186;6.926;2023-04-03T01:46:11;18.61;50.19
65239;SHT30;51827;51.186;6.926;2023-04-03T01:47:11;18.64;50.22
65239;SHT30;51827;51.186;6.926;2023-04-03T01:48:12;18.65;50.19
65239;SHT30;51827;51.186;6.926;2023-04-03T01:49:12;18.62;50.27
65239;SHT30;51827;51.186;6.926;2023-04-03T01:50:13;18.62;50.17
65239;SHT30;51827;51.186;6.926;2023-04-03T01:51:13;18.65;50.18
65239;SHT30;51827;51.186;6.926;2023-04-03T01:52:14;18.62;50.23
65239;SHT30;51827;51.186;6.926;2023-04-03T01:53:15;18.62;50.23
65239;SHT30;51827;51.186;6.926;2023-04-03T01:54:15;18.62;50.24
65239;SHT30;51827;51.186;6.926;2023-04-03T01:55:15;18.62;50.23
65239;SHT30;51827;51.186;6.926;2023-04-03T01:56:16;18.61;50.19
65239;SHT30;51827;51.186;6.926;2023-04-03T01:57:16;18.59;50.23
65239;SHT30;51827;51.186;6.926;2023-04-03T01:58:16;18.62;50.16
65239;SHT30;51827;51.186;6.926;2023-04-03T01:59:16;18.62;50.21
65239;SHT30;51827;51.186;6.926;2023-04-03T02:00:17;18.62;50.18
65239;SHT30;51827;51.186;6.926;2023-04-03T02:01:17;18.62;50.22
65239;SHT30;51827;51.186;6.926;2023-04-03T02:02:17;18.64;50.19
65239;SHT30;51827;51.186;6.926;2023-04-03T02:03:18;18.61;50.19
65239;SHT30;51827;51.186;6.926;2023-04-03T02:04:18;18.64;50.21
65239;SHT30;51827;51.186;6.926;2023-04-03T02:05:19;18.62;50.20
65239;SHT30;51827;51.186;6.926;2023-04-03T02:06:19;18.61;50.17
65239;SHT30;51827;51.186;6.926;2023-04-03T02:07:19;18.61;50.19
65239;SHT30;51827;51.186;6.926;2023-04-03T02:08:19;18.61;50.17
65239;SHT30;51827;51.186;6.926;2023-04-03T02:09:20;18.62;50.21
65239;SHT30;51827;51.186;6.926;2023-04-03T02:10:20;18.61;50.15
65239;SHT30;51827;51.186;6.926;2023-04-03T02:11:20;18.64;50.25
65239;SHT30;51827;51.186;6.926;2023-04-03T02:12:20;18.61;50.15
65239;SHT30;51827;51.186;6.926;2023-04-03T02:13:21;18.61;50.17
65239;SHT30;51827;51.186;6.926;2023-04-03T02:14:21;18.61;50.16
65239;SHT30;51827;51.186;6.926;2023-04-03T02:15:21;18.59;50.17
65239;SHT30;51827;51.186;6.926;2023-04-03T02:16:21;18.59;50.19
65239;SHT30;51827;51.186;6.926;2023-04-03T02:17:22;18.61;50.17
65239;SHT30;51827;51.186;6.926;2023-04-03T02:18:22;18.61;50.14
65239;SHT30;51827;51.186;6.926;2023-04-03T02:19:23;18.59;50.17
65239;SHT30;51827;51.186;6.926;2023-04-03T02:20:23;18.62;50.15
65239;SHT30;51827;51.186;6.926;2023-04-03T02:21:23;18.59;50.13
65239;SHT30;51827;51.186;6.926;2023-04-03T02:22:24;18.59;50.15
65239;SHT30;51827;51.186;6.926;2023-04-03T02:23:24;18.59;50.16
65239;SHT30;51827;51.186;6.926;2023-04-03T02:24:24;18.58;50.12
65239;SHT30;51827;51.186;6.926;2023-04-03T02:25:25;18.61;50.19
65239;SHT30;51827;51.186;6.926;2023-04-03T02:26:25;18.58;50.18
65239;SHT30;51827;51.186;6.926;2023-04-03T02:27:25;18.64;50.15
65239;SHT30;51827;51.186;6.926;2023-04-03T02:28:25;18.59;50.17
65239;SHT30;51827;51.186;6.926;2023-04-03T02:29:26;18.59;50.14
65239;SHT30;51827;51.186;6.926;2023-04-03T02:30:26;18.61;50.15
65239;SHT30;51827;51.186;6.926;2023-04-03T02:31:27;18.59;50.18
65239;SHT30;51827;51.186;6.926;2023-04-03T02:32:27;18.56;50.17
65239;SHT30;51827;51.186;6.926;2023-04-03T02:33:27;18.56;50.16
65239;SHT30;51827;51.186;6.926;2023-04-03T02:34:28;18.59;50.12
65239;SHT30;51827;51.186;6.926;2023-04-03T02:35:28;18.59;50.15
65239;SHT30;51827;51.186;6.926;2023-04-03T02:36:28;18.58;50.14
65239;SHT30;51827;51.186;6.926;2023-04-03T02:37:28;18.58;50.18
65239;SHT30;51827;51.186;6.926;2023-04-03T02:38:29;18.58;50.20
65239;SHT30;51827;51.186;6.926;2023-04-03T02:39:29;18.56;50.14
65239;SHT30;51827;51.186;6.926;2023-04-03T02:40:29;18.59;50.16
65239;SHT30;51827;51.186;6.926;2023-04-03T02:41:29;18.58;50.12
65239;SHT30;51827;51.186;6.926;2023-04-03T02:42:30;18.58;50.07
65239;SHT30;51827;51.186;6.926;2023-04-03T02:43:31;18.58;50.09
65239;SHT30;51827;51.186;6.926;2023-04-03T02:44:31;18.58;50.07
65239;SHT30;51827;51.186;6.926;2023-04-03T02:45:31;18.59;50.09
65239;SHT30;51827;51.186;6.926;2023-04-03T02:46:32;18.59;50.14
65239;SHT30;51827;51.186;6.926;2023-04-03T02:47:33;18.58;50.14
65239;SHT30;51827;51.186;6.926;2023-04-03T02:48:33;18.56;50.14
65239;SHT30;51827;51.186;6.926;2023-04-03T02:49:33;18.56;50.14
65239;SHT30;51827;51.186;6.926;2023-04-03T02:50:34;18.55;50.10
65239;SHT30;51827;51.186;6.926;2023-04-03T02:51:34;18.59;50.08
65239;SHT30;51827;51.186;6.926;2023-04-03T02:52:34;18.58;50.11
65239;SHT30;51827;51.186;6.926;2023-04-03T02:53:34;18.55;50.13
65239;SHT30;51827;51.186;6.926;2023-04-03T02:54:35;18.55;50.11
65239;SHT30;51827;51.186;6.926;2023-04-03T02:55:35;18.59;50.13
65239;SHT30;51827;51.186;6.926;2023-04-03T02:56:35;18.55;50.15
65239;SHT30;51827;51.186;6.926;2023-04-03T02:57:35;18.54;50.12
65239;SHT30;51827;51.186;6.926;2023-04-03T02:58:36;18.56;50.13
65239;SHT30;51827;51.186;6.926;2023-04-03T02:59:36;18.55;50.13
65239;SHT30;51827;51.186;6.926;2023-04-03T03:00:37;18.56;50.15
65239;SHT30;51827;51.186;6.926;2023-04-03T03:01:37;18.55;50.10
65239;SHT30;51827;51.186;6.926;2023-04-03T03:02:37;18.55;50.13
65239;SHT30;51827;51.186;6.926;2023-04-03T03:03:38;18.56;50.07
65239;SHT30;51827;51.186;6.926;2023-04-03T03:04:38;18.54;50.08
65239;SHT30;51827;51.186;6.926;2023-04-03T03:05:38;18.56;50.07
65239;SHT30;51827;51.186;6.926;2023-04-03T03:06:38;18.58;50.05
65239;SHT30;51827;51.186;6.926;2023-04-03T03:07:39;18.56;50.04
65239;SHT30;51827;51.186;6.926;2023-04-03T03:08:40;18.58;50.09
65239;SHT30;51827;51.186;6.926;2023-04-03T03:09:40;18.55;50.12
65239;SHT30;51827;51.186;6.926;2023-04-03T03:10:41;18.56;50.11
65239;SHT30;51827;51.186;6.926;2023-04-03T03:11:41;18.55;50.08
65239;SHT30;51827;51.186;6.926;2023-04-03T03:12:41;18.55;50.09
65239;SHT30;51827;51.186;6.926;2023-04-03T03:13:41;18.56;50.09
65239;SHT30;51827;51.186;6.926;2023-04-03T03:14:42;18.54;50.05
65239;SHT30;51827;51.186;6.926;2023-04-03T03:15:42;18.55;50.04
65239;SHT30;51827;51.186;6.926;2023-04-03T03:16:42;18.55;50.05
65239;SHT30;51827;51.186;6.926;2023-04-03T03:17:43;18.55;50.08
65239;SHT30;51827;51.186;6.926;2023-04-03T03:18:43;18.54;50.03
65239;SHT30;51827;51.186;6.926;2023-04-03T03:19:44;18.54;50.08
65239;SHT30;51827;51.186;6.926;2023-04-03T03:20:44;18.55;50.04
65239;SHT30;51827;51.186;6.926;2023-04-03T03:21:44;18.54;50.08
65239;SHT30;51827;51.186;6.926;2023-04-03T03:22:44;18.56;50.05
65239;SHT30;51827;51.186;6.926;2023-04-03T03:23:45;18.54;50.02
65239;SHT30;51827;51.186;6.926;2023-04-03T03:24:45;18.55;50.07
65239;SHT30;51827;51.186;6.926;2023-04-03T03:25:45;18.55;50.01
65239;SHT30;51827;51.186;6.926;2023-04-03T03:26:45;18.54;50.04
65239;SHT30;51827;51.186;6.926;2023-04-03T03:27:46;18.54;50.03
65239;SHT30;51827;51.186;6.926;2023-04-03T03:28:46;18.52;50.02
65239;SHT30;51827;51.186;6.926;2023-04-03T03:29:46;18.54;50.00
65239;SHT30;51827;51.186;6.926;2023-04-03T03:30:47;18.55;50.02
65239;SHT30;51827;51.186;6.926;2023-04-03T03:31:47;18.52;49.98
65239;SHT30;51827;51.186;6.926;2023-04-03T03:32:47;18.54;49.96
65239;SHT30;51827;51.186;6.926;2023-04-03T03:33:48;18.54;49.97
65239;SHT30;51827;51.186;6.926;2023-04-03T03:34:48;18.52;50.00
65239;SHT30;51827;51.186;6.926;2023-04-03T03:35:48;18.56;49.97
65239;SHT30;51827;51.186;6.926;2023-04-03T03:36:49;18.54;49.95
65239;SHT30;51827;51.186;6.926;2023-04-03T03:37:49;18.52;49.99
65239;SHT30;51827;51.186;6.926;2023-04-03T03:38:49;18.54;50.00
65239;SHT30;51827;51.186;6.926;2023-04-03T03:39:49;18.54;49.96
65239;SHT30;51827;51.186;6.926;2023-04-03T03:40:50;18.54;49.99
65239;SHT30;51827;51.186;6.926;2023-04-03T03:41:51;18.54;49.96
65239;SHT30;51827;51.186;6.926;2023-04-03T03:42:51;18.52;49.99
65239;SHT30;51827;51.186;6.926;2023-04-03T03:43:51;18.51;49.98
65239;SHT30;51827;51.186;6.926;2023-04-03T03:44:52;18.52;50.00
65239;SHT30;51827;51.186;6.926;2023-04-03T03:45:52;18.51;49.99
65239;SHT30;51827;51.186;6.926;2023-04-03T03:46:53;18.51;50.03
65239;SHT30;51827;51.186;6.926;2023-04-03T03:47:53;18.51;49.97
65239;SHT30;51827;51.186;6.926;2023-04-03T03:48:53;18.52;49.99
65239;SHT30;51827;51.186;6.926;2023-04-03T03:49:54;18.52;49.97
65239;SHT30;51827;51.186;6.926;2023-04-03T03:50:54;18.54;49.96
65239;SHT30;51827;51.186;6.926;2023-04-03T03:51:54;18.52;49.90
65239;SHT30;51827;51.186;6.926;2023-04-03T03:52:54;18.51;49.94
65239;SHT30;51827;51.186;6.926;2023-04-03T03:53:55;18.51;49.90
65239;SHT30;51827;51.186;6.926;2023-04-03T03:54:55;18.52;49.92
65239;SHT30;51827;51.186;6.926;2023-04-03T03:55:55;18.54;49.94
65239;SHT30;51827;51.186;6.926;2023-04-03T03:56:56;18.52;49.91
65239;SHT30;51827;51.186;6.926;2023-04-03T03:57:56;18.54;49.91
65239;SHT30;51827;51.186;6.926;2023-04-03T03:58:56;18.49;49.95
65239;SHT30;51827;51.186;6.926;2023-04-03T03:59:56;18.51;49.92
65239;SHT30;51827;51.186;6.926;2023-04-03T04:01:00;18.52;49.91
65239;SHT30;51827;51.186;6.926;2023-04-03T04:02:00;18.51;49.91
65239;SHT30;51827;51.186;6.926;2023-04-03T04:03:01;18.51;49.92
65239;SHT30;51827;51.186;6.926;2023-04-03T04:04:01;18.51;49.93
65239;SHT30;51827;51.186;6.926;2023-04-03T04:05:01;18.51;49.89
65239;SHT30;51827;51.186;6.926;2023-04-03T04:06:01;18.49;49.94
65239;SHT30;51827;51.186;6.926;2023-04-03T04:07:03;18.52;49.88
65239;SHT30;51827;51.186;6.926;2023-04-03T04:08:03;18.51;49.97
65239;SHT30;51827;51.186;6.926;2023-04-03T04:09:03;18.48;49.93
65239;SHT30;51827;51.186;6.926;2023-04-03T04:10:04;18.51;49.96
65239;SHT30;51827;51.186;6.926;2023-04-03T04:11:04;18.52;49.98
65239;SHT30;51827;51.186;6.926;2023-04-03T04:12:05;18.49;49.95
65239;SHT30;51827;51.186;6.926;2023-04-03T04:13:05;18.49;49.94
65239;SHT30;51827;51.186;6.926;2023-04-03T04:14:06;18.51;50.09
65239;SHT30;51827;51.186;6.926;2023-04-03T04:15:07;18.51;50.21
65239;SHT30;51827;51.186;6.926;2023-04-03T04:16:07;18.52;50.17
65239;SHT30;51827;51.186;6.926;2023-04-03T04:17:08;18.51;50.05
65239;SHT30;51827;51.186;6.926;2023-04-03T04:18:08;18.49;49.98
65239;SHT30;51827;51.186;6.926;2023-04-03T04:19:08;18.52;50.03
65239;SHT30;51827;51.186;6.926;2023-04-03T04:20:09;18.51;50.05
65239;SHT30;51827;51.186;6.926;2023-04-03T04:21:09;18.51;50.03
65239;SHT30;51827;51.186;6.926;2023-04-03T04:22:09;18.54;50.05
65239;SHT30;51827;51.186;6.926;2023-04-03T04:23:10;18.49;50.03
65239;SHT30;51827;51.186;6.926;2023-04-03T04:24:10;18.49;50.10
65239;SHT30;51827;51.186;6.926;2023-04-03T04:25:10;18.48;50.12
65239;SHT30;51827;51.186;6.926;2023-04-03T04:26:11;18.48;50.12
65239;SHT30;51827;51.186;6.926;2023-04-03T04:27:11;18.51;50.09
65239;SHT30;51827;51.186;6.926;2023-04-03T04:28:12;18.52;50.07
65239;SHT30;51827;51.186;6.926;2023-04-03T04:29:12;18.49;50.11
65239;SHT30;51827;51.186;6.926;2023-04-03T04:30:13;18.51;50.21
65239;SHT30;51827;51.186;6.926;2023-04-03T04:31:13;18.52;50.27
65239;SHT30;51827;51.186;6.926;2023-04-03T04:32:14;18.51;50.28
65239;SHT30;51827;51.186;6.926;2023-04-03T04:33:14;18.52;50.23
65239;SHT30;51827;51.186;6.926;2023-04-03T04:34:14;18.52;50.12
65239;SHT30;51827;51.186;6.926;2023-04-03T04:35:14;18.54;50.15
65239;SHT30;51827;51.186;6.926;2023-04-03T04:36:15;18.51;50.16
65239;SHT30;51827;51.186;6.926;2023-04-03T04:37:15;18.51;50.16
65239;SHT30;51827;51.186;6.926;2023-04-03T04:38:15;18.51;50.21
65239;SHT30;51827;51.186;6.926;2023-04-03T04:39:16;18.52;50.17
65239;SHT30;51827;51.186;6.926;2023-04-03T04:40:16;18.47;50.19
65239;SHT30;51827;51.186;6.926;2023-04-03T04:41:16;18.48;50.19
65239;SHT30;51827;51.186;6.926;2023-04-03T04:42:16;18.52;50.17
65239;SHT30;51827;51.186;6.926;2023-04-03T04:43:17;18.49;50.22
65239;SHT30;51827;51.186;6.926;2023-04-03T04:44:17;18.49;50.18
65239;SHT30;51827;51.186;6.926;2023-04-03T04:45:17;18.49;50.19
65239;SHT30;51827;51.186;6.926;2023-04-03T04:46:18;18.51;50.24
65239;SHT30;51827;51.186;6.926;2023-04-03T04:47:19;18.51;50.24
65239;SHT30;51827;51.186;6.926;2023-04-03T04:48:19;18.49;50.22
65239;SHT30;51827;51.186;6.926;2023-04-03T04:49:19;18.51;50.18
65239;SHT30;51827;51.186;6.926;2023-04-03T04:50:20;18.48;50.25
65239;SHT30;51827;51.186;6.926;2023-04-03T04:51:20;18.49;50.23
65239;SHT30;51827;51.186;6.926;2023-04-03T04:52:20;18.52;50.25
65239;SHT30;51827;51.186;6.926;2023-04-03T04:53:21;18.48;50.19
65239;SHT30;51827;51.186;6.926;2023-04-03T04:54:21;18.48;50.21
65239;SHT30;51827;51.186;6.926;2023-04-03T04:55:21;18.49;50.25
65239;SHT30;51827;51.186;6.926;2023-04-03T04:56:23;18.51;50.16
65239;SHT30;51827;51.186;6.926;2023-04-03T04:57:23;18.49;50.17
65239;SHT30;51827;51.186;6.926;2023-04-03T04:58:23;18.49;50.14
65239;SHT30;51827;51.186;6.926;2023-04-03T04:59:24;18.48;50.17
65239;SHT30;51827;51.186;6.926;2023-04-03T05:00:24;18.51;50.15
65239;SHT30;51827;51.186;6.926;2023-04-03T05:01:24;18.51;50.15
65239;SHT30;51827;51.186;6.926;2023-04-03T05:02:24;18.49;50.17
65239;SHT30;51827;51.186;6.926;2023-04-03T05:03:25;18.49;50.14
65239;SHT30;51827;51.186;6.926;2023-04-03T05:04:25;18.49;50.13
65239;SHT30;51827;51.186;6.926;2023-04-03T05:05:25;18.49;50.20
65239;SHT30;51827;51.186;6.926;2023-04-03T05:06:25;18.48;50.14
65239;SHT30;51827;51.186;6.926;2023-04-03T05:07:26;18.48;50.16
65239;SHT30;51827;51.186;6.926;2023-04-03T05:08:26;18.48;50.18
65239;SHT30;51827;51.186;6.926;2023-04-03T05:09:26;18.49;50.15
65239;SHT30;51827;51.186;6.926;2023-04-03T05:10:27;18.48;50.16
65239;SHT30;51827;51.186;6.926;2023-04-03T05:11:27;18.49;50.16
65239;SHT30;51827;51.186;6.926;2023-04-03T05:12:28;18.48;50.16
65239;SHT30;51827;51.186;6.926;2023-04-03T05:13:28;18.48;50.17
65239;SHT30;51827;51.186;6.926;2023-04-03T05:14:29;18.48;50.14
65239;SHT30;51827;51.186;6.926;2023-04-03T05:15:29;18.47;50.13
65239;SHT30;51827;51.186;6.926;2023-04-03T05:16:29;18.49;50.16
65239;SHT30;51827;51.186;6.926;2023-04-03T05:17:29;18.48;50.19
65239;SHT30;51827;51.186;6.926;2023-04-03T05:18:30;18.48;50.15
65239;SHT30;51827;51.186;6.926;2023-04-03T05:19:30;18.48;50.14
65239;SHT30;51827;51.186;6.926;2023-04-03T05:20:31;18.49;50.22
65239;SHT30;51827;51.186;6.926;2023-04-03T05:21:31;18.49;50.24
65239;SHT30;51827;51.186;6.926;2023-04-03T05:22:32;18.51;50.21
65239;SHT30;51827;51.186;6.926;2023-04-03T05:23:32;18.48;50.25
65239;SHT30;51827;51.186;6.926;2023-04-03T05:24:33;18.49;50.23
65239;SHT30;51827;51.186;6.926;2023-04-03T05:25:33;18.49;50.25
65239;SHT30;51827;51.186;6.926;2023-04-03T05:26:33;18.49;50.25
65239;SHT30;51827;51.186;6.926;2023-04-03T05:27:33;18.48;50.26
65239;SHT30;51827;51.186;6.926;2023-04-03T05:28:34;18.48;50.32
65239;SHT30;51827;51.186;6.926;2023-04-03T05:29:34;18.48;50.31
65239;SHT30;51827;51.186;6.926;2023-04-03T05:30:35;18.47;50.32
65239;SHT30;51827;51.186;6.926;2023-04-03T05:31:35;18.48;50.28
65239;SHT30;51827;51.186;6.926;2023-04-03T05:32:40;18.47;50.26
65239;SHT30;51827;51.186;6.926;2023-04-03T05:33:40;18.48;50.28
65239;SHT30;51827;51.186;6.926;2023-04-03T05:34:41;18.48;50.31
65239;SHT30;51827;51.186;6.926;2023-04-03T05:35:41;18.48;50.29
65239;SHT30;51827;51.186;6.926;2023-04-03T05:36:41;18.48;50.27
65239;SHT30;51827;51.186;6.926;2023-04-03T05:37:42;18.49;50.26
65239;SHT30;51827;51.186;6.926;2023-04-03T05:38:42;18.49;50.24
65239;SHT30;51827;51.186;6.926;2023-04-03T05:39:42;18.47;50.24
65239;SHT30;51827;51.186;6.926;2023-04-03T05:40:42;18.48;50.23
65239;SHT30;51827;51.186;6.926;2023-04-03T05:41:43;18.51;50.23
65239;SHT30;51827;51.186;6.926;2023-04-03T05:42:43;18.49;50.24
65239;SHT30;51827;51.186;6.926;2023-04-03T05:43:43;18.48;50.24
65239;SHT30;51827;51.186;6.926;2023-04-03T05:44:43;18.48;50.21
65239;SHT30;51827;51.186;6.926;2023-04-03T05:45:44;18.49;50.22
65239;SHT30;51827;51.186;6.926;2023-04-03T05:46:44;18.49;50.22
65239;SHT30;51827;51.186;6.926;2023-04-03T05:47:44;18.48;50.21
65239;SHT30;51827;51.186;6.926;2023-04-03T05:48:44;18.49;50.16
65239;SHT30;51827;51.186;6.926;2023-04-03T05:49:45;18.48;50.20
65239;SHT30;51827;51.186;6.926;2023-04-03T05:50:46;18.51;50.12
65239;SHT30;51827;51.186;6.926;2023-04-03T05:51:46;18.51;50.17
65239;SHT30;51827;51.186;6.926;2023-04-03T05:52:48;18.49;50.18
65239;SHT30;51827;51.186;6.926;2023-04-03T05:53:52;18.49;50.17
65239;SHT30;51827;51.186;6.926;2023-04-03T05:54:55;18.48;50.12
65239;SHT30;51827;51.186;6.926;2023-04-03T05:55:56;18.49;50.10
65239;SHT30;51827;51.186;6.926;2023-04-03T05:56:56;18.48;50.13
65239;SHT30;51827;51.186;6.926;2023-04-03T05:57:56;18.49;50.14
65239;SHT30;51827;51.186;6.926;2023-04-03T05:58:56;18.48;50.12
65239;SHT30;51827;51.186;6.926;2023-04-03T05:59:57;18.48;50.13
65239;SHT30;51827;51.186;6.926;2023-04-03T06:00:57;18.51;50.12
65239;SHT30;51827;51.186;6.926;2023-04-03T06:01:57;18.51;50.10
65239;SHT30;51827;51.186;6.926;2023-04-03T06:02:57;18.51;50.07
65239;SHT30;51827;51.186;6.926;2023-04-03T06:03:58;18.51;50.05
65239;SHT30;51827;51.186;6.926;2023-04-03T06:04:58;18.49;50.07
65239;SHT30;51827;51.186;6.926;2023-04-03T06:05:58;18.48;50.10
65239;SHT30;51827;51.186;6.926;2023-04-03T06:06:58;18.51;50.06
65239;SHT30;51827;51.186;6.926;2023-04-03T06:07:59;18.49;50.04
65239;SHT30;51827;51.186;6.926;2023-04-03T06:08:59;18.49;50.03
65239;SHT30;51827;51.186;6.926;2023-04-03T06:10:00;18.51;50.03
65239;SHT30;51827;51.186;6.926;2023-04-03T06:11:00;18.51;50.04
65239;SHT30;51827;51.186;6.926;2023-04-03T06:12:01;18.51;50.00
65239;SHT30;51827;51.186;6.926;2023-04-03T06:13:01;18.51;49.99
65239;SHT30;51827;51.186;6.926;2023-04-03T06:14:02;18.51;50.01
65239;SHT30;51827;51.186;6.926;2023-04-03T06:15:02;18.51;50.00
65239;SHT30;51827;51.186;6.926;2023-04-03T06:16:03;18.48;50.04
65239;SHT30;51827;51.186;6.926;2023-04-03T06:17:03;18.51;49.98
65239;SHT30;51827;51.186;6.926;2023-04-03T06:18:04;18.49;49.98
65239;SHT30;51827;51.186;6.926;2023-04-03T06:19:04;18.51;49.99
65239;SHT30;51827;51.186;6.926;2023-04-03T06:20:05;18.52;49.98
65239;SHT30;51827;51.186;6.926;2023-04-03T06:21:06;18.51;49.95
65239;SHT30;51827;51.186;6.926;2023-04-03T06:22:06;18.49;49.94
65239;SHT30;51827;51.186;6.926;2023-04-03T06:23:06;18.52;49.95
65239;SHT30;51827;51.186;6.926;2023-04-03T06:24:07;18.51;49.94
65239;SHT30;51827;51.186;6.926;2023-04-03T06:25:10;18.51;49.95
65239;SHT30;51827;51.186;6.926;2023-04-03T06:26:13;18.52;49.92
65239;SHT30;51827;51.186;6.926;2023-04-03T06:27:13;18.52;49.92
65239;SHT30;51827;51.186;6.926;2023-04-03T06:28:14;18.49;49.92
65239;SHT30;51827;51.186;6.926;2023-04-03T06:29:14;18.51;49.88